Time;durP1;ratioP1;P1;durP2;ratioP2;P2;SDS_P1;SDS_P2;PMS_P1;PMS_P2;Temp;Humidity;BMP_temperature;BMP_pressure;BME280_temperature;BME280_humidity;BME280_pressure;Samples;Min_cycle;Max_cycle;Signal;HPM_P1;HPM_P2
2022/03/15 00:01:02;;;;;;;17.90;7.72;;;;;;;;;;6196502;28;20057;-74
2022/03/15 00:04:05;;;;;;;19.48;9.27;;;;;;;;;;6197226;28;20288;-74
2022/03/15 00:07:13;;;;;;;21.33;9.45;;;;;;;;;;6197529;28;20046;-73
2022/03/15 00:10:16;;;;;;;22.38;9.15;;;;;;;;;;6196451;28;20549;-72
2022/03/15 00:13:20;;;;;;;18.08;8.93;;;;;;;;;;6195373;28;20042;-74
2022/03/15 00:16:24;;;;;;;16.98;8.63;;;;;;;;;;6196126;28;20129;-80
2022/03/15 00:19:28;;;;;;;19.70;9.65;;;;;;;;;;6195320;28;20092;-73
2022/03/15 00:22:34;;;;;;;16.15;8.00;;;;;;;;;;6194776;28;20045;-74
2022/03/15 00:25:46;;;;;;;19.92;8.55;;;;;;;;;;6196679;28;20050;-74
2022/03/15 00:28:49;;;;;;;22.50;9.38;;;;;;;;;;6196771;28;20152;-73
2022/03/15 00:31:54;;;;;;;20.10;8.52;;;;;;;;;;6194722;28;20096;-74
2022/03/15 00:34:56;;;;;;;20.67;9.80;;;;;;;;;;6195577;28;20060;-74
2022/03/15 00:37:59;;;;;;;20.90;9.40;;;;;;;;;;6220730;28;20485;-73
2022/03/15 00:41:02;;;;;;;17.50;8.43;;;;;;;;;;6219001;28;20121;-75
2022/03/15 00:44:08;;;;;;;18.42;9.20;;;;;;;;;;6219736;28;20481;-74
2022/03/15 00:47:12;;;;;;;20.00;9.55;;;;;;;;;;6202814;28;20099;-73
2022/03/15 00:50:17;;;;;;;20.25;9.40;;;;;;;;;;6220505;28;20045;-74
2022/03/15 00:53:20;;;;;;;17.83;9.07;;;;;;;;;;6219594;28;20129;-74
2022/03/15 00:56:25;;;;;;;21.25;9.60;;;;;;;;;;6218338;28;20046;-72
2022/03/15 00:59:28;;;;;;;18.23;8.63;;;;;;;;;;6218228;28;20042;-73
2022/03/15 01:02:34;;;;;;;17.50;8.50;;;;;;;;;;6217900;28;20038;-74
2022/03/15 01:05:42;;;;;;;21.10;9.65;;;;;;;;;;6216171;28;20396;-73
2022/03/15 01:08:49;;;;;;;18.58;8.98;;;;;;;;;;6217077;28;20057;-74
2022/03/15 01:11:51;;;;;;;22.10;8.98;;;;;;;;;;6217322;28;20191;-73
2022/03/15 01:14:54;;;;;;;17.48;8.95;;;;;;;;;;6216430;28;20436;-73
2022/03/15 01:17:59;;;;;;;16.83;8.68;;;;;;;;;;6215721;28;20042;-73
2022/03/15 01:21:04;;;;;;;22.30;9.43;;;;;;;;;;6199913;28;20045;-73
2022/03/15 01:24:07;;;;;;;16.95;8.27;;;;;;;;;;6216700;28;20132;-74
2022/03/15 01:27:11;;;;;;;19.15;8.75;;;;;;;;;;6198866;28;20190;-72
2022/03/15 01:30:13;;;;;;;19.88;9.43;;;;;;;;;;6217746;28;20095;-73
2022/03/15 01:33:19;;;;;;;17.83;8.20;;;;;;;;;;6217847;28;20512;-74
2022/03/15 01:36:22;;;;;;;22.80;9.00;;;;;;;;;;6218477;28;20140;-74
2022/03/15 01:39:25;;;;;;;17.92;9.25;;;;;;;;;;6219125;28;20042;-74
2022/03/15 01:42:31;;;;;;;18.20;8.65;;;;;;;;;;6219485;28;20045;-74
2022/03/15 01:45:37;;;;;;;16.88;8.50;;;;;;;;;;6218613;28;20503;-73
2022/03/15 01:48:42;;;;;;;15.88;8.13;;;;;;;;;;6217277;28;20046;-73
2022/03/15 01:51:50;;;;;;;14.13;7.65;;;;;;;;;;6219280;28;20050;-73
2022/03/15 01:54:53;;;;;;;18.80;8.35;;;;;;;;;;6201277;28;20042;-74
2022/03/15 01:57:58;;;;;;;17.42;8.25;;;;;;;;;;6218249;28;20072;-73
2022/03/15 02:01:04;;;;;;;19.35;8.23;;;;;;;;;;6217639;28;20073;-73
2022/03/15 02:04:09;;;;;;;17.88;8.57;;;;;;;;;;6218952;28;20045;-74
2022/03/15 02:07:14;;;;;;;17.38;7.60;;;;;;;;;;6200705;28;20045;-75
2022/03/15 02:10:18;;;;;;;17.02;8.38;;;;;;;;;;6216739;28;20492;-74
2022/03/15 02:13:23;;;;;;;20.40;8.48;;;;;;;;;;6218823;28;20046;-74
2022/03/15 02:16:29;;;;;;;;;;;;;;;;;;6218748;28;20049;-74
2022/03/15 02:19:33;;;;;;;16.63;8.50;;;;;;;;;;6217724;28;19925;-74
2022/03/15 02:22:37;;;;;;;17.50;7.93;;;;;;;;;;6217136;28;20623;-74
2022/03/15 02:25:43;;;;;;;18.65;8.75;;;;;;;;;;6219331;28;20148;-74
2022/03/15 02:28:46;;;;;;;18.90;8.15;;;;;;;;;;6216384;28;20081;-74
2022/03/15 02:31:49;;;;;;;17.60;8.70;;;;;;;;;;6217699;28;20050;-74
2022/03/15 02:34:53;;;;;;;19.13;8.80;;;;;;;;;;6218280;28;20053;-74
2022/03/15 02:37:57;;;;;;;18.27;8.38;;;;;;;;;;6217889;28;20120;-74
2022/03/15 02:41:00;;;;;;;19.33;8.40;;;;;;;;;;6217705;28;20054;-74
2022/03/15 02:44:04;;;;;;;18.45;8.55;;;;;;;;;;6218086;28;20042;-73
2022/03/15 02:47:07;;;;;;;17.25;8.75;;;;;;;;;;6218081;28;20486;-74
2022/03/15 02:50:10;;;;;;;20.60;8.65;;;;;;;;;;6200187;28;20054;-73
2022/03/15 02:53:15;;;;;;;21.73;8.70;;;;;;;;;;6217981;28;20099;-74
2022/03/15 02:56:18;;;;;;;19.05;9.25;;;;;;;;;;6218225;28;20068;-74
2022/03/15 02:59:21;;;;;;;19.33;9.55;;;;;;;;;;6217476;28;20053;-74
2022/03/15 03:02:25;;;;;;;24.58;9.93;;;;;;;;;;6215928;28;20050;-74
2022/03/15 03:05:28;;;;;;;19.17;9.50;;;;;;;;;;6218026;28;20049;-73
2022/03/15 03:08:34;;;;;;;18.17;8.73;;;;;;;;;;6216569;28;20046;-73
2022/03/15 03:11:38;;;;;;;20.95;8.25;;;;;;;;;;6217581;28;20080;-73
2022/03/15 03:14:47;;;;;;;19.45;8.60;;;;;;;;;;6217617;28;20053;-73
2022/03/15 03:17:58;;;;;;;19.10;8.05;;;;;;;;;;6218065;28;20046;-73
2022/03/15 03:21:01;;;;;;;20.35;8.43;;;;;;;;;;6217202;28;20053;-74
2022/03/15 03:24:08;;;;;;;18.65;7.93;;;;;;;;;;6217076;28;20046;-74
2022/03/15 03:27:13;;;;;;;19.05;8.55;;;;;;;;;;6219132;28;20136;-73
2022/03/15 03:30:16;;;;;;;19.52;9.07;;;;;;;;;;6222743;28;20042;-74
2022/03/15 03:33:21;;;;;;;23.35;8.50;;;;;;;;;;6221569;28;20050;-73
2022/03/15 03:36:26;;;;;;;17.80;9.50;;;;;;;;;;6221816;28;20057;-74
2022/03/15 03:39:53;;;;;;;24.02;9.07;;;;;;;;;;6222578;28;20045;-73
2022/03/15 03:42:56;;;;;;;16.35;8.38;;;;;;;;;;6221870;28;20096;-74
2022/03/15 03:45:59;;;;;;;18.10;8.40;;;;;;;;;;6221551;28;20050;-73
2022/03/15 03:49:02;;;;;;;20.27;8.98;;;;;;;;;;6221879;28;20049;-73
2022/03/15 03:52:06;;;;;;;19.38;9.70;;;;;;;;;;6222040;28;20124;-74
2022/03/15 03:55:13;;;;;;;18.15;9.68;;;;;;;;;;6220016;28;20054;-73
2022/03/15 03:58:16;;;;;;;20.55;9.38;;;;;;;;;;6221619;28;20046;-73
2022/03/15 04:01:19;;;;;;;23.65;8.73;;;;;;;;;;6221875;28;20049;-74
2022/03/15 04:04:25;;;;;;;17.67;8.77;;;;;;;;;;6220437;28;20406;-73
2022/03/15 04:07:29;;;;;;;16.38;8.93;;;;;;;;;;6221400;28;20050;-74
2022/03/15 04:10:37;;;;;;;17.85;7.90;;;;;;;;;;6221558;28;20512;-73
2022/03/15 04:13:42;;;;;;;18.05;8.77;;;;;;;;;;6221854;28;20095;-73
2022/03/15 04:16:45;;;;;;;18.75;8.80;;;;;;;;;;6220679;28;20057;-73
2022/03/15 04:19:50;;;;;;;19.65;8.43;;;;;;;;;;6220612;28;20034;-73
2022/03/15 04:22:53;;;;;;;19.90;8.20;;;;;;;;;;6221485;28;20061;-74
2022/03/15 04:25:58;;;;;;;15.93;7.38;;;;;;;;;;6220735;28;20049;-74
2022/03/15 04:29:01;;;;;;;16.58;7.82;;;;;;;;;;6218907;28;20073;-73
2022/03/15 04:32:04;;;;;;;18.17;8.07;;;;;;;;;;6221053;28;20511;-74
2022/03/15 04:35:08;;;;;;;14.45;7.55;;;;;;;;;;6220733;28;20077;-73
2022/03/15 04:38:12;;;;;;;18.63;8.10;;;;;;;;;;6219013;28;20045;-74
2022/03/15 04:41:17;;;;;;;16.92;7.80;;;;;;;;;;6220325;28;20458;-73
2022/03/15 04:44:20;;;;;;;22.20;9.35;;;;;;;;;;6221053;28;20056;-73
2022/03/15 04:47:23;;;;;;;15.00;7.63;;;;;;;;;;6218848;28;20050;-74
2022/03/15 04:50:26;;;;;;;15.15;7.25;;;;;;;;;;6219854;28;20084;-73
2022/03/15 04:53:29;;;;;;;19.77;8.25;;;;;;;;;;6221132;28;20064;-73
2022/03/15 04:56:34;;;;;;;16.80;7.63;;;;;;;;;;6220116;28;20049;-73
2022/03/15 04:59:39;;;;;;;15.75;7.40;;;;;;;;;;6219518;28;20042;-73
2022/03/15 05:02:44;;;;;;;17.48;7.85;;;;;;;;;;6220317;28;20084;-73
2022/03/15 05:05:46;;;;;;;16.48;8.18;;;;;;;;;;6219183;28;20599;-73
2022/03/15 05:08:49;;;;;;;16.52;9.13;;;;;;;;;;6219555;28;20049;-73
2022/03/15 05:11:53;;;;;;;18.88;8.27;;;;;;;;;;6219569;28;20048;-73
2022/03/15 05:14:56;;;;;;;17.23;8.25;;;;;;;;;;6220476;28;20046;-73
2022/03/15 05:17:59;;;;;;;13.95;6.75;;;;;;;;;;6218296;28;20045;-73
2022/03/15 05:21:02;;;;;;;14.25;7.57;;;;;;;;;;6217778;28;20041;-73
2022/03/15 05:24:06;;;;;;;23.02;9.20;;;;;;;;;;6218926;28;20551;-73
2022/03/15 05:27:13;;;;;;;20.90;9.75;;;;;;;;;;6219974;28;20060;-74
2022/03/15 05:30:18;;;;;;;19.85;8.55;;;;;;;;;;6219025;28;20415;-73
2022/03/15 05:33:21;;;;;;;16.85;9.23;;;;;;;;;;6217789;28;20046;-73
2022/03/15 05:36:24;;;;;;;19.42;9.30;;;;;;;;;;6219561;28;20068;-74
2022/03/15 05:39:27;;;;;;;20.00;9.55;;;;;;;;;;6218914;28;20046;-73
2022/03/15 05:42:33;;;;;;;21.17;9.60;;;;;;;;;;6218155;28;20127;-73
2022/03/15 05:45:36;;;;;;;19.75;9.20;;;;;;;;;;6201765;28;20050;-73
2022/03/15 05:48:41;;;;;;;17.48;8.57;;;;;;;;;;6219266;28;20049;-73
2022/03/15 05:51:45;;;;;;;21.65;8.85;;;;;;;;;;6216509;28;20053;-72
2022/03/15 05:54:47;;;;;;;20.05;8.15;;;;;;;;;;6218884;28;20184;-73
2022/03/15 05:57:54;;;;;;;17.95;9.05;;;;;;;;;;6219361;28;20042;-73
2022/03/15 06:00:57;;;;;;;16.88;8.23;;;;;;;;;;6218340;28;20053;-72
2022/03/15 06:04:00;;;;;;;19.63;8.68;;;;;;;;;;6218047;28;20056;-73
2022/03/15 06:07:04;;;;;;;17.00;8.80;;;;;;;;;;6217853;28;20148;-72
2022/03/15 06:10:10;;;;;;;21.52;8.68;;;;;;;;;;6219033;28;20045;-73
2022/03/15 06:13:14;;;;;;;18.25;8.20;;;;;;;;;;6217759;28;20136;-72
2022/03/15 06:16:17;;;;;;;21.42;8.60;;;;;;;;;;6218580;28;20057;-73
2022/03/15 06:19:23;;;;;;;17.65;7.68;;;;;;;;;;6219012;28;20132;-72
2022/03/15 06:22:29;;;;;;;;;;;;;;;;;;6218338;28;20050;-74
2022/03/15 06:25:32;;;;;;;18.90;8.35;;;;;;;;;;6217914;28;19928;-71
2022/03/15 06:28:36;;;;;;;17.05;7.78;;;;;;;;;;6218697;28;20412;-71
2022/03/15 06:31:39;;;;;;;15.38;8.05;;;;;;;;;;6218184;28;20379;-71
2022/03/15 06:34:42;;;;;;;15.60;7.95;;;;;;;;;;6216047;28;20049;-72
2022/03/15 06:37:46;;;;;;;17.73;8.23;;;;;;;;;;6216894;28;20081;-72
2022/03/15 06:40:50;;;;;;;16.42;8.18;;;;;;;;;;6218528;28;20057;-72
2022/03/15 06:43:57;;;;;;;18.77;9.00;;;;;;;;;;6217408;28;20049;-73
2022/03/15 06:47:03;;;;;;;19.23;8.25;;;;;;;;;;6217830;28;20136;-72
2022/03/15 06:50:08;;;;;;;19.20;8.57;;;;;;;;;;6200644;28;20133;-73
2022/03/15 06:53:13;;;;;;;17.70;9.40;;;;;;;;;;6217854;28;20045;-73
2022/03/15 06:56:19;;;;;;;18.40;9.23;;;;;;;;;;6217278;28;20507;-71
2022/03/15 06:59:25;;;;;;;19.65;10.77;;;;;;;;;;6218072;28;20049;-72
2022/03/15 07:02:35;;;;;;;20.85;11.02;;;;;;;;;;6219041;28;20069;-71
2022/03/15 07:05:39;;;;;;;23.08;10.98;;;;;;;;;;6220931;28;20042;-73
2022/03/15 07:08:42;;;;;;;25.23;14.35;;;;;;;;;;6221635;28;20069;-72
2022/03/15 07:11:47;;;;;;;27.38;13.18;;;;;;;;;;6222048;28;20053;-72
2022/03/15 07:14:51;;;;;;;24.20;12.30;;;;;;;;;;6222727;28;20061;-72
2022/03/15 07:17:55;;;;;;;26.10;13.25;;;;;;;;;;6221722;28;20056;-72
2022/03/15 07:20:58;;;;;;;21.52;13.00;;;;;;;;;;6222607;28;20400;-72
2022/03/15 07:24:01;;;;;;;26.30;13.40;;;;;;;;;;6222574;28;20046;-72
2022/03/15 07:27:04;;;;;;;25.20;13.07;;;;;;;;;;6221709;28;20154;-71
2022/03/15 07:30:09;;;;;;;27.15;13.00;;;;;;;;;;6204488;28;20061;-71
2022/03/15 07:33:12;;;;;;;23.80;12.85;;;;;;;;;;6222748;28;20046;-72
2022/03/15 07:36:15;;;;;;;21.77;12.52;;;;;;;;;;6221960;28;20420;-73
2022/03/15 07:39:18;;;;;;;22.27;12.57;;;;;;;;;;6221839;28;20048;-73
2022/03/15 07:42:23;;;;;;;27.92;13.35;;;;;;;;;;6222536;28;20060;-74
2022/03/15 07:45:28;;;;;;;;;;;;;;;;;;6223171;28;20371;-74
2022/03/15 07:48:32;;;;;;;22.85;12.70;;;;;;;;;;6221148;28;20231;-73
2022/03/15 07:51:35;;;;;;;25.73;13.35;;;;;;;;;;6222046;28;20042;-73
2022/03/15 07:54:38;;;;;;;23.83;12.93;;;;;;;;;;6220954;28;20088;-73
2022/03/15 07:57:43;;;;;;;23.98;12.45;;;;;;;;;;6221128;28;20208;-73
2022/03/15 08:00:48;;;;;;;27.95;13.73;;;;;;;;;;6220767;28;20050;-73
2022/03/15 08:03:54;;;;;;;27.65;14.32;;;;;;;;;;6221912;28;20053;-73
2022/03/15 08:06:57;;;;;;;27.77;15.55;;;;;;;;;;6221736;28;20431;-74
2022/03/15 08:10:00;;;;;;;27.35;14.02;;;;;;;;;;6220503;28;20046;-74
2022/03/15 08:13:03;;;;;;;26.42;15.07;;;;;;;;;;6221067;28;20046;-74
2022/03/15 08:16:06;;;;;;;29.90;15.70;;;;;;;;;;6221419;28;20053;-72
2022/03/15 08:19:11;;;;;;;30.60;16.73;;;;;;;;;;6203100;28;20436;-73
2022/03/15 08:22:14;;;;;;;27.00;14.93;;;;;;;;;;6220455;28;20042;-75
2022/03/15 08:25:19;;;;;;;30.47;16.30;;;;;;;;;;6221327;28;20408;-74
2022/03/15 08:28:23;;;;;;;30.70;16.33;;;;;;;;;;6220665;28;20807;-74
2022/03/15 08:31:28;;;;;;;30.02;16.08;;;;;;;;;;6220231;28;20062;-74
2022/03/15 08:34:36;;;;;;;30.43;17.87;;;;;;;;;;6221310;28;20054;-75
2022/03/15 08:37:50;;;;;;;31.25;17.48;;;;;;;;;;6220805;28;20306;-74
2022/03/15 08:40:55;;;;;;;30.35;16.10;;;;;;;;;;6220100;28;20451;-74
2022/03/15 08:43:58;;;;;;;31.45;18.30;;;;;;;;;;6220182;28;20397;-74
2022/03/15 08:47:02;;;;;;;33.25;18.75;;;;;;;;;;6219826;28;20057;-72
2022/03/15 08:50:08;;;;;;;30.15;17.38;;;;;;;;;;6220600;28;20166;-75
2022/03/15 08:53:11;;;;;;;;;;;;;;;;;;6220258;28;20046;-74
2022/03/15 08:56:14;;;;;;;28.38;16.73;;;;;;;;;;6220457;28;19921;-74
2022/03/15 08:59:20;;;;;;;30.65;17.92;;;;;;;;;;6220441;28;20515;-75
2022/03/15 09:02:23;;;;;;;;;;;;;;;;;;6219709;28;20104;-74
2022/03/15 09:05:27;;;;;;;30.52;16.48;;;;;;;;;;6219397;28;20300;-73
2022/03/15 09:08:31;;;;;;;33.22;18.75;;;;;;;;;;6220024;28;20077;-74
2022/03/15 09:11:34;;;;;;;26.70;16.30;;;;;;;;;;6219512;28;20045;-74
2022/03/15 09:14:37;;;;;;;29.52;16.58;;;;;;;;;;6217763;28;20053;-74
2022/03/15 09:17:40;;;;;;;29.45;16.80;;;;;;;;;;6218961;28;20070;-73
2022/03/15 09:20:59;;;;;;;27.73;14.50;;;;;;;;;;6220093;28;20115;-75
2022/03/15 09:24:02;;;;;;;27.55;16.25;;;;;;;;;;6218756;28;20049;-73
2022/03/15 09:27:05;;;;;;;26.05;14.43;;;;;;;;;;6218703;28;20053;-75
2022/03/15 09:30:09;;;;;;;24.73;15.27;;;;;;;;;;6219890;28;20053;-75
2022/03/15 09:33:12;;;;;;;26.83;14.77;;;;;;;;;;6219192;28;20104;-74
2022/03/15 09:36:19;;;;;;;24.38;13.95;;;;;;;;;;6218501;28;20193;-74
2022/03/15 09:39:23;;;;;;;26.48;17.95;;;;;;;;;;6219521;28;20050;-76
2022/03/15 09:42:29;;;;;;;28.10;15.37;;;;;;;;;;6219329;28;20092;-75
2022/03/15 09:45:33;;;;;;;24.55;13.68;;;;;;;;;;6218110;28;20473;-74
2022/03/15 09:48:36;;;;;;;21.02;12.68;;;;;;;;;;6217448;28;20056;-76
2022/03/15 09:51:43;;;;;;;28.05;14.80;;;;;;;;;;6219183;28;20111;-76
2022/03/15 09:54:47;;;;;;;25.25;12.95;;;;;;;;;;6217103;28;20053;-76
2022/03/15 09:57:51;;;;;;;22.42;12.93;;;;;;;;;;6218046;28;20053;-75
2022/03/15 10:00:55;;;;;;;21.50;12.90;;;;;;;;;;6219333;28;20045;-77
2022/03/15 10:03:58;;;;;;;19.20;12.07;;;;;;;;;;6217554;28;20057;-75
2022/03/15 10:07:04;;;;;;;21.90;13.20;;;;;;;;;;6217806;28;20049;-76
2022/03/15 10:10:09;;;;;;;23.05;13.88;;;;;;;;;;6218485;28;20050;-77
2022/03/15 10:13:15;;;;;;;21.60;13.38;;;;;;;;;;6218866;28;20046;-77
2022/03/15 10:16:18;;;;;;;21.02;12.15;;;;;;;;;;6217898;28;20054;-77
2022/03/15 10:19:21;;;;;;;19.27;10.93;;;;;;;;;;6216215;28;20053;-77
2022/03/15 10:22:27;;;;;;;20.95;10.65;;;;;;;;;;6218340;28;20068;-78
2022/03/15 10:25:31;;;;;;;17.55;10.73;;;;;;;;;;6218397;28;20551;-78
2022/03/15 10:28:36;;;;;;;17.90;10.18;;;;;;;;;;6217487;28;20048;-81
2022/03/15 10:31:39;;;;;;;18.50;10.23;;;;;;;;;;6218225;28;20408;-80
2022/03/15 10:34:43;;;;;;;21.77;10.32;;;;;;;;;;6217115;28;20534;-79
2022/03/15 10:37:47;;;;;;;20.65;10.70;;;;;;;;;;6217130;28;20058;-77
2022/03/15 10:40:53;;;;;;;17.70;10.35;;;;;;;;;;6216183;28;20510;-76
2022/03/15 10:43:57;;;;;;;19.45;11.65;;;;;;;;;;6218277;28;20054;-81
2022/03/15 10:47:03;;;;;;;22.92;10.60;;;;;;;;;;6217837;28;20042;-80
2022/03/15 10:50:06;;;;;;;;;;;;;;;;;;6217297;28;20049;-78
2022/03/15 10:53:13;;;;;;;20.27;10.35;;;;;;;;;;6217940;28;19921;-79
2022/03/15 10:56:17;;;;;;;14.70;10.23;;;;;;;;;;6217354;28;20049;-83
2022/03/15 10:59:21;;;;;;;16.90;10.57;;;;;;;;;;6217463;28;20049;-80
2022/03/15 11:02:30;;;;;;;17.05;10.07;;;;;;;;;;6216164;28;20053;-88
2022/03/15 11:05:34;;;;;;;18.13;9.18;;;;;;;;;;6218156;28;20116;-86
2022/03/15 11:08:39;;;;;;;16.77;9.95;;;;;;;;;;6200261;28;20539;-78
2022/03/15 11:11:42;;;;;;;20.35;10.02;;;;;;;;;;6216755;28;20041;-78
2022/03/15 11:14:48;;;;;;;15.82;9.57;;;;;;;;;;6217699;28;20041;-79
2022/03/15 11:17:57;;;;;;;20.77;10.90;;;;;;;;;;6218480;28;20046;-84
2022/03/15 11:21:01;;;;;;;17.90;9.50;;;;;;;;;;6217080;28;20056;-84
2022/03/15 11:24:12;;;;;;;15.75;9.27;;;;;;;;;;6217327;28;20050;-78
2022/03/15 11:27:16;;;;;;;15.43;9.60;;;;;;;;;;6218164;28;20048;-87
2022/03/15 11:30:20;;;;;;;58.60;38.15;;;;;;;;;;6217527;28;20065;-81
2022/03/15 11:33:23;;;;;;;17.17;10.15;;;;;;;;;;6215258;28;20145;-87
2022/03/15 11:36:26;;;;;;;15.27;9.35;;;;;;;;;;6217397;28;20097;-85
2022/03/15 11:39:31;;;;;;;17.08;9.07;;;;;;;;;;6217604;28;20208;-83
2022/03/15 11:42:35;;;;;;;16.77;9.07;;;;;;;;;;6216804;28;20369;-88
2022/03/15 11:45:41;;;;;;;16.20;8.63;;;;;;;;;;6216796;28;20041;-81
2022/03/15 11:48:44;;;;;;;;;;;;;;;;;;6220368;28;20065;-84
2022/03/15 11:51:53;;;;;;;14.65;8.35;;;;;;;;;;6222105;28;20434;-81
2022/03/15 11:55:02;;;;;;;28.20;16.23;;;;;;;;;;6220638;28;20373;-81
2022/03/15 11:58:05;;;;;;;29.23;16.10;;;;;;;;;;6221861;28;20128;-81
2022/03/15 12:01:10;;;;;;;43.95;9.10;;;;;;;;;;6222095;28;20053;-81
2022/03/15 12:04:17;;;;;;;15.55;8.50;;;;;;;;;;6220511;28;20053;-78
2022/03/15 12:07:45;;;;;;;17.80;8.85;;;;;;;;;;6220596;28;20500;-81
2022/03/15 12:10:56;;;;;;;16.13;8.27;;;;;;;;;;6221945;28;20547;-75
2022/03/15 12:14:11;;;;;;;19.30;9.20;;;;;;;;;;6221607;28;20053;-81
2022/03/15 12:17:15;;;;;;;16.10;9.30;;;;;;;;;;6220711;28;20512;-77
2022/03/15 12:20:19;;;;;;;17.33;8.85;;;;;;;;;;6219255;28;20104;-78
2022/03/15 12:23:23;;;;;;;13.15;8.27;;;;;;;;;;6221254;28;20050;-77
2022/03/15 12:26:28;;;;;;;16.02;8.10;;;;;;;;;;6221376;28;20038;-77
2022/03/15 12:29:31;;;;;;;12.68;7.82;;;;;;;;;;6223408;28;20056;-87
2022/03/15 12:32:35;;;;;;;15.13;8.45;;;;;;;;;;6223570;28;20073;-83
2022/03/15 12:35:39;;;;;;;26.50;9.13;;;;;;;;;;6222689;28;20115;-82
2022/03/15 12:38:42;;;;;;;13.45;8.23;;;;;;;;;;6220339;28;20416;-77
2022/03/15 12:41:47;;;;;;;14.65;7.85;;;;;;;;;;6220788;28;20041;-80
2022/03/15 12:44:51;;;;;;;17.23;9.23;;;;;;;;;;6221671;28;20431;-80
2022/03/15 12:48:02;;;;;;;14.20;7.82;;;;;;;;;;6221183;28;20057;-81
2022/03/15 12:51:37;;;;;;;12.70;8.10;;;;;;;;;;6218959;28;20049;-80
2022/03/15 12:54:40;;;;;;;15.27;8.65;;;;;;;;;;6178902;28;20073;-81
2022/03/15 12:57:45;;;;;;;12.43;8.23;;;;;;;;;;6179429;28;20061;-80
2022/03/15 13:00:49;;;;;;;12.88;8.10;;;;;;;;;;6195340;28;20077;-80
2022/03/15 13:03:53;;;;;;;14.63;8.27;;;;;;;;;;6196377;28;20061;-79
2022/03/15 13:06:57;;;;;;;15.65;8.57;;;;;;;;;;6197340;28;20047;-78
2022/03/15 13:10:00;;;;;;;16.20;8.00;;;;;;;;;;6195073;28;20054;-78
2022/03/15 13:13:08;;;;;;;15.02;7.90;;;;;;;;;;6194294;28;20480;-80
2022/03/15 13:16:12;;;;;;;14.93;8.32;;;;;;;;;;6196585;28;20051;-80
2022/03/15 13:19:24;;;;;;;17.13;8.65;;;;;;;;;;6220917;28;20445;-81
2022/03/15 13:22:29;;;;;;;12.07;7.50;;;;;;;;;;6215107;28;20051;-81
2022/03/15 13:25:35;;;;;;;15.77;7.90;;;;;;;;;;6195405;28;20095;-77
2022/03/15 13:28:41;;;;;;;13.52;8.00;;;;;;;;;;6196532;28;20477;-82
2022/03/15 13:31:45;;;;;;;13.80;7.38;;;;;;;;;;6195465;28;20050;-82
2022/03/15 13:34:54;;;;;;;11.35;7.25;;;;;;;;;;6193453;28;20058;-79
2022/03/15 13:37:57;;;;;;;12.88;7.95;;;;;;;;;;6202628;28;20061;-79
2022/03/15 13:41:00;;;;;;;14.52;7.65;;;;;;;;;;6218223;28;20054;-77
2022/03/15 13:44:06;;;;;;;12.27;7.80;;;;;;;;;;6219084;28;20056;-85
2022/03/15 13:47:16;;;;;;;15.02;7.50;;;;;;;;;;6213655;28;20124;-85
2022/03/15 13:50:19;;;;;;;13.88;7.68;;;;;;;;;;6195894;28;20046;-79
2022/03/15 13:53:22;;;;;;;14.13;7.82;;;;;;;;;;6195167;28;20042;-73
2022/03/15 13:56:26;;;;;;;13.07;7.90;;;;;;;;;;6194017;28;20058;-75
2022/03/15 13:59:32;;;;;;;14.30;8.30;;;;;;;;;;6195528;28;20042;-76
2022/03/15 14:02:35;;;;;;;11.93;8.10;;;;;;;;;;6195042;28;20050;-75
2022/03/15 14:05:39;;;;;;;19.77;8.32;;;;;;;;;;6194211;28;20046;-74
2022/03/15 14:08:48;;;;;;;13.25;7.72;;;;;;;;;;6191868;28;20065;-77
2022/03/15 14:12:02;;;;;;;15.27;7.95;;;;;;;;;;6194874;28;20058;-76
2022/03/15 14:15:11;;;;;;;13.55;7.63;;;;;;;;;;6218079;28;20050;-77
2022/03/15 14:18:25;;;;;;;13.65;7.93;;;;;;;;;;6217626;28;20049;-75
2022/03/15 14:21:29;;;;;;;14.13;7.95;;;;;;;;;;6218083;28;20444;-75
2022/03/15 14:24:33;;;;;;;12.77;7.97;;;;;;;;;;6201456;28;20045;-75
2022/03/15 14:27:40;;;;;;;16.38;8.15;;;;;;;;;;6217123;28;20046;-75
2022/03/15 14:30:43;;;;;;;;;;;;;;;;;;6215366;28;20050;-74
2022/03/15 14:34:00;;;;;;;14.43;7.35;;;;;;;;;;6214413;28;20272;-75
2022/03/15 14:37:05;;;;;;;14.68;7.88;;;;;;;;;;6215710;28;20053;-74
2022/03/15 14:40:10;;;;;;;14.60;8.10;;;;;;;;;;6214927;28;20056;-75
2022/03/15 14:43:14;;;;;;;13.68;8.10;;;;;;;;;;6215246;28;20053;-76
2022/03/15 14:46:18;;;;;;;13.35;8.15;;;;;;;;;;6215483;28;20129;-75
2022/03/15 14:49:22;;;;;;;12.38;7.78;;;;;;;;;;6215480;28;20448;-75
2022/03/15 14:52:26;;;;;;;13.38;7.85;;;;;;;;;;6213890;28;20481;-75
2022/03/15 14:55:30;;;;;;;12.85;7.32;;;;;;;;;;6216234;28;20050;-74
2022/03/15 14:58:36;;;;;;;13.03;7.20;;;;;;;;;;6217254;28;20049;-75
2022/03/15 15:01:39;;;;;;;15.45;7.78;;;;;;;;;;6217132;28;20061;-75
2022/03/15 15:04:45;;;;;;;13.57;7.30;;;;;;;;;;6199942;28;20531;-75
2022/03/15 15:07:51;;;;;;;14.98;8.00;;;;;;;;;;6218413;28;20469;-75
2022/03/15 15:10:54;;;;;;;13.48;7.75;;;;;;;;;;6218237;28;20061;-75
2022/03/15 15:13:57;;;;;;;14.65;7.53;;;;;;;;;;6198858;28;20066;-75
2022/03/15 15:17:05;;;;;;;35.35;18.88;;;;;;;;;;6216809;28;20165;-76
2022/03/15 15:20:13;;;;;;;14.90;7.78;;;;;;;;;;6218138;28;20455;-76
2022/03/15 15:23:20;;;;;;;16.30;8.10;;;;;;;;;;6218319;28;20147;-75
2022/03/15 15:26:24;;;;;;;11.63;6.93;;;;;;;;;;6220664;28;20053;-74
2022/03/15 15:29:29;;;;;;;13.13;7.22;;;;;;;;;;6223306;28;20045;-75
2022/03/15 15:32:34;;;;;;;13.88;7.20;;;;;;;;;;6222504;28;20049;-75
2022/03/15 15:35:39;;;;;;;12.20;7.43;;;;;;;;;;6220995;28;20184;-75
2022/03/15 15:38:46;;;;;;;9.70;6.60;;;;;;;;;;6222897;28;20061;-75
2022/03/15 15:41:49;;;;;;;13.70;7.50;;;;;;;;;;6222613;28;20131;-73
2022/03/15 15:44:54;;;;;;;12.05;7.28;;;;;;;;;;6221192;28;20053;-75
2022/03/15 15:47:57;;;;;;;15.73;7.63;;;;;;;;;;6221752;28;20041;-75
2022/03/15 15:51:03;;;;;;;14.90;6.82;;;;;;;;;;6203178;28;20535;-75
2022/03/15 15:54:06;;;;;;;10.10;6.63;;;;;;;;;;6220122;28;20193;-74
2022/03/15 15:57:11;;;;;;;13.82;7.07;;;;;;;;;;6220909;28;20085;-75
2022/03/15 16:00:14;;;;;;;11.38;7.15;;;;;;;;;;6219505;28;20373;-75
2022/03/15 16:03:17;;;;;;;15.82;7.15;;;;;;;;;;6219763;28;20416;-75
2022/03/15 16:06:22;;;;;;;12.27;6.97;;;;;;;;;;6218014;28;20420;-75
2022/03/15 16:09:25;;;;;;;14.03;7.03;;;;;;;;;;6217295;28;20045;-74
2022/03/15 16:12:29;;;;;;;16.92;7.50;;;;;;;;;;6220116;28;20291;-74
2022/03/15 16:15:34;;;;;;;13.77;6.75;;;;;;;;;;6218815;28;20433;-74
2022/03/15 16:18:42;;;;;;;14.27;7.07;;;;;;;;;;6200265;28;20073;-74
2022/03/15 16:21:49;;;;;;;16.23;7.22;;;;;;;;;;6220346;28;20045;-74
2022/03/15 16:24:52;;;;;;;15.75;7.40;;;;;;;;;;6221458;28;20049;-74
2022/03/15 16:27:55;;;;;;;15.65;6.75;;;;;;;;;;6220104;28;20057;-74
2022/03/15 16:30:58;;;;;;;20.98;7.47;;;;;;;;;;6220995;28;20489;-73
2022/03/15 16:34:01;;;;;;;12.38;7.45;;;;;;;;;;6219415;28;20121;-74
2022/03/15 16:37:05;;;;;;;11.93;6.93;;;;;;;;;;6220595;28;20054;-74
2022/03/15 16:40:09;;;;;;;13.93;7.30;;;;;;;;;;6219768;28;20041;-74
2022/03/15 16:43:12;;;;;;;14.07;6.88;;;;;;;;;;6203715;28;20046;-73
2022/03/15 16:46:15;;;;;;;14.82;7.25;;;;;;;;;;6221002;28;20112;-73
2022/03/15 16:49:19;;;;;;;18.15;7.82;;;;;;;;;;6219683;28;20046;-74
2022/03/15 16:52:24;;;;;;;15.73;7.15;;;;;;;;;;6220686;28;20046;-73
2022/03/15 16:55:27;;;;;;;13.15;7.28;;;;;;;;;;6220774;28;20050;-73
2022/03/15 17:01:53;;;;;;;11.95;7.20;;;;;;;;;;6217818;28;20052;-74
2022/03/15 17:08:18;;;;;;;16.83;8.10;;;;;;;;;;6219135;28;20044;-74
2022/03/15 17:11:24;;;;;;;15.13;7.75;;;;;;;;;;6217855;28;20050;-74
2022/03/15 17:14:28;;;;;;;13.35;7.25;;;;;;;;;;6199507;28;20050;-74
2022/03/15 17:17:32;;;;;;;16.57;8.17;;;;;;;;;;6217730;28;20037;-76
2022/03/15 17:20:36;;;;;;;14.98;7.82;;;;;;;;;;6217055;28;20049;-74
2022/03/15 17:23:46;;;;;;;20.25;8.30;;;;;;;;;;6216595;28;20046;-74
2022/03/15 17:26:49;;;;;;;19.38;8.32;;;;;;;;;;6216152;28;20057;-74
2022/03/15 17:29:55;;;;;;;17.35;8.23;;;;;;;;;;6217540;28;20053;-74
2022/03/15 17:33:00;;;;;;;22.15;9.13;;;;;;;;;;6200208;28;20152;-73
2022/03/15 17:36:03;;;;;;;14.13;8.68;;;;;;;;;;6217850;28;20049;-73
2022/03/15 17:39:08;;;;;;;23.20;8.73;;;;;;;;;;6219813;28;20048;-72
2022/03/15 17:42:12;;;;;;;22.75;8.90;;;;;;;;;;6219389;28;20042;-73
2022/03/15 17:45:17;;;;;;;19.45;9.30;;;;;;;;;;6217521;28;20041;-75
2022/03/15 17:48:24;;;;;;;19.52;8.98;;;;;;;;;;6219793;28;20507;-74
2022/03/15 17:51:27;;;;;;;17.00;8.73;;;;;;;;;;6219955;28;20037;-75
2022/03/15 17:54:33;;;;;;;22.25;8.30;;;;;;;;;;6215046;28;20045;-74
2022/03/15 17:57:38;;;;;;;17.23;8.98;;;;;;;;;;6201863;28;20045;-75
2022/03/15 18:00:41;;;;;;;16.67;8.45;;;;;;;;;;6219852;28;20041;-74
2022/03/15 18:03:44;;;;;;;19.90;9.50;;;;;;;;;;6219092;28;20050;-74
2022/03/15 18:06:51;;;;;;;16.30;9.10;;;;;;;;;;6217978;28;20077;-74
2022/03/15 18:09:55;;;;;;;19.83;9.35;;;;;;;;;;6218124;28;20054;-72
2022/03/15 18:12:59;;;;;;;17.05;9.15;;;;;;;;;;6218025;28;20045;-74
2022/03/15 18:16:07;;;;;;;25.15;10.30;;;;;;;;;;6217540;28;20119;-74